CheckWX is a tool to help pilots better visualize weather data.  It is not intended as a substitute for an official pre-flight weather briefing.

12:56:38 UTC

CYAS METAR
Kangirsuk Supplementary Aviation Weather Reporting
Kangirsuk, Canada
Current

57 mins ago

CYAS 221200Z 12012KT 15SM FEW046 SCT080 04/01 A3007 RMK SC2AC1 SLP193
Observed
May-22 @ 12:00 UTC
Wind
  • 120° at 12 KTS
Visibility
15 SM
Flight Rules
VFR
Cloud Levels
  • Few at 4,600' AGL
  • Scattered at 8,000' AGL
Temperature
C / 39°F
Dewpoint
C / 34°F
Humidity
81%
Altimeter
30.07" Hg
Pressure
1018.32 hPa
Previous

16 hours ago

CYAS 212100Z 10011KT 15SM FEW010 SCT080 BKN230 05/01 A3012 RMK SC1AC2CS3 LAST STFD OBS/NEXT 221200UTC SLP210
Observed
May-21 @ 21:00 UTC
Wind
  • 100° at 11 KTS
Visibility
15 SM
Flight Rules
VFR
Cloud Levels
  • Few at 1,000' AGL
  • Scattered at 8,000' AGL
  • Broken at 23,000' AGL
Temperature
C / 41°F
Dewpoint
C / 34°F
Humidity
76%
Altimeter
30.12" Hg
Pressure
1020.02 hPa
Previous

17 hours ago

CYAS 212000Z 10011KT 15SM FEW010 SCT080 BKN230 05/01 A3012 RMK SF1AC2CS4 SLP211
Observed
May-21 @ 20:00 UTC
Wind
  • 100° at 11 KTS
Visibility
15 SM
Flight Rules
VFR
Cloud Levels
  • Few at 1,000' AGL
  • Scattered at 8,000' AGL
  • Broken at 23,000' AGL
Temperature
C / 41°F
Dewpoint
C / 34°F
Humidity
76%
Altimeter
30.12" Hg
Pressure
1020.02 hPa